Time;durP1;ratioP1;P1;durP2;ratioP2;P2;SDS_P1;SDS_P2;PMS_P1;PMS_P2;Temp;Humidity;BMP_temperature;BMP_pressure;BME280_temperature;BME280_humidity;BME280_pressure;Samples;Min_cycle;Max_cycle;Signal;HPM_P1;HPM_P2
2022/12/22 03:28:01;;;;;;;0.67;0.60;;;;;;;9.00;95.90;94803.44;4822908;29;20769;-82
2022/12/22 03:30:27;;;;;;;0.77;0.67;;;;;;;9.16;94.86;94807.88;4806014;29;20197;-82
2022/12/22 03:32:52;;;;;;;1.33;1.03;;;;;;;9.33;94.08;94812.94;4798470;29;20206;-83
2022/12/22 03:35:17;;;;;;;1.07;0.60;;;;;;;9.28;94.42;94810.03;4798392;29;20208;-82
2022/12/22 03:37:43;;;;;;;3.53;0.90;;;;;;;9.33;93.71;94800.00;4791276;29;20194;-83
2022/12/22 03:40:08;;;;;;;2.40;0.67;;;;;;;9.24;94.23;94811.31;4795010;29;20198;-83
2022/12/22 03:48:01;;;;;;;1.97;0.80;;;;;;;9.27;94.24;94815.34;4808675;29;20248;-83
2022/12/22 03:50:27;;;;;;;2.77;0.70;;;;;;;9.18;95.41;94811.91;4802846;29;20750;-82
2022/12/22 03:52:52;;;;;;;1.77;0.90;;;;;;;9.07;96.38;94809.63;4806559;29;20221;-82
2022/12/22 03:55:17;;;;;;;1.13;0.53;;;;;;;9.11;95.85;94810.94;4805087;29;20224;-83
2022/12/22 03:57:43;;;;;;;0.90;0.70;;;;;;;9.14;96.08;94805.44;4790956;29;20334;-83
2022/12/22 04:00:08;;;;;;;0.90;0.70;;;;;;;9.26;95.37;94805.94;4799909;29;20209;-82
2022/12/22 04:02:33;;;;;;;4.30;0.80;;;;;;;9.20;95.92;94807.41;4790713;29;20190;-82
2022/12/22 04:04:59;;;;;;;3.70;0.73;;;;;;;9.17;96.61;94793.94;4820348;29;20205;-83
2022/12/22 04:07:24;;;;;;;1.47;0.70;;;;;;;9.19;96.79;94797.19;4816496;29;20226;-82
2022/12/22 04:15:17;;;;;;;2.00;0.90;;;;;;;8.88;100.00;94787.38;4820386;29;20242;-82
2022/12/22 04:17:42;;;;;;;1.67;0.90;;;;;;;8.97;100.00;94785.63;4806283;29;20194;-83
2022/12/22 04:20:08;;;;;;;3.63;0.90;;;;;;;8.91;100.00;94778.47;4794198;29;20328;-83
2022/12/22 04:22:34;;;;;;;4.10;1.07;;;;;;;8.92;100.00;94782.69;4805529;29;20636;-83
2022/12/22 04:24:59;;;;;;;4.73;1.20;;;;;;;8.91;100.00;94779.28;4805065;29;20318;-83
2022/12/22 04:27:24;;;;;;;2.90;0.70;;;;;;;8.87;100.00;94777.19;4798769;29;20225;-82
2022/12/22 04:29:50;;;;;;;1.10;0.67;;;;;;;9.00;100.00;94775.75;4797743;29;20666;-82
2022/12/22 04:32:15;;;;;;;2.60;1.00;;;;;;;8.76;100.00;94771.31;4805169;29;20200;-82
2022/12/22 04:34:40;;;;;;;2.40;0.87;;;;;;;8.87;100.00;94775.41;4798041;29;20201;-82
2022/12/22 04:37:05;;;;;;;1.63;1.07;;;;;;;8.96;100.00;94776.25;4806637;29;20623;-83
2022/12/22 04:39:31;;;;;;;2.13;1.00;;;;;;;8.84;100.00;94764.56;4804100;29;20195;-83
2022/12/22 04:41:56;;;;;;;2.00;1.10;;;;;;;8.86;100.00;94766.00;4821945;29;20198;-82
2022/12/22 04:44:21;;;;;;;3.07;1.00;;;;;;;8.92;100.00;94772.31;4827422;29;20200;-82
2022/12/22 04:46:47;;;;;;;3.83;1.00;;;;;;;8.87;100.00;94769.41;4805569;29;20588;-84
2022/12/22 04:49:12;;;;;;;1.77;1.00;;;;;;;8.81;100.00;94768.25;4809100;29;20280;-82
2022/12/22 04:51:37;;;;;;;4.40;1.10;;;;;;;8.83;100.00;94773.25;4802865;29;20249;-82
2022/12/22 04:54:02;;;;;;;1.47;0.80;;;;;;;8.72;100.00;94770.00;4820764;29;20194;-84
2022/12/22 04:56:28;;;;;;;3.47;0.90;;;;;;;8.80;100.00;94761.44;4810959;29;20217;-83
2022/12/22 04:58:53;;;;;;;1.17;1.07;;;;;;;8.87;100.00;94759.06;4808167;29;20214;-82
2022/12/22 05:01:18;;;;;;;1.57;1.10;;;;;;;8.84;100.00;94759.38;4804757;29;20284;-82
2022/12/22 05:03:44;;;;;;;2.07;1.20;;;;;;;8.88;100.00;94765.84;4811920;29;20572;-82
2022/12/22 05:06:12;;;;;;;2.20;0.83;;;;;;;8.98;100.00;94741.44;4811003;29;20233;-82
2022/12/22 05:08:37;;;;;;;1.00;0.60;;;;;;;8.95;100.00;94739.19;4813287;29;20201;-82
2022/12/22 05:11:03;;;;;;;2.93;0.80;;;;;;;9.03;100.00;94746.16;4811671;29;20758;-82
2022/12/22 05:13:29;;;;;;;2.23;0.70;;;;;;;8.83;100.00;94761.13;4813045;29;20198;-84
2022/12/22 05:16:21;;;;;;;0.93;0.63;;;;;;;8.87;100.00;94756.47;4810887;29;20236;-83
2022/12/22 05:18:46;;;;;;;1.30;0.60;;;;;;;8.97;100.00;94736.44;4825654;29;20229;-83
2022/12/22 05:21:14;;;;;;;1.50;0.60;;;;;;;8.89;100.00;94744.16;4799203;29;20285;-83
2022/12/22 05:23:39;;;;;;;1.50;0.80;;;;;;;8.99;100.00;94734.47;4807875;29;20217;-82
2022/12/22 05:26:05;;;;;;;1.67;0.80;;;;;;;9.05;100.00;94737.25;4795573;29;20671;-82
2022/12/22 05:28:31;;;;;;;1.93;0.90;;;;;;;9.04;100.00;94732.25;4802322;29;20584;-82
2022/12/22 05:30:56;;;;;;;1.37;0.60;;;;;;;8.93;100.00;94730.75;4811284;29;20572;-83
2022/12/22 05:33:22;;;;;;;1.73;0.77;;;;;;;9.06;100.00;94725.13;4811590;29;20193;-83
2022/12/22 05:35:47;;;;;;;2.53;0.70;;;;;;;9.19;99.72;94728.09;4810599;29;20221;-82
2022/12/22 05:38:12;;;;;;;2.07;0.70;;;;;;;8.98;100.00;94736.25;4800935;29;20194;-83
2022/12/22 05:40:37;;;;;;;1.60;0.67;;;;;;;9.02;100.00;94729.81;4800476;29;20201;-83
2022/12/22 05:43:03;;;;;;;2.93;0.60;;;;;;;8.95;99.86;94731.41;4811456;29;20197;-82
2022/12/22 05:45:28;;;;;;;7.70;3.60;;;;;;;8.98;99.85;94735.47;4810744;29;20213;-83
2022/12/22 05:47:53;;;;;;;2.57;1.10;;;;;;;8.88;99.06;94737.38;4808667;29;20250;-82
2022/12/22 05:50:22;;;;;;;1.53;0.77;;;;;;;8.83;99.21;94749.97;4799384;29;20224;-83
2022/12/22 05:52:47;;;;;;;2.13;0.90;;;;;;;8.84;98.08;94729.13;4808701;29;20194;-82
2022/12/22 05:55:13;;;;;;;4.83;1.03;;;;;;;8.99;97.43;94729.31;4809054;29;20194;-83
2022/12/22 05:57:40;;;;;;;4.33;1.00;;;;;;;8.93;96.49;94730.75;4807919;29;20715;-83
2022/12/22 06:00:08;;;;;;;3.50;1.10;;;;;;;8.89;95.15;94739.00;4808366;29;20194;-83
2022/12/22 06:02:33;;;;;;;3.27;0.97;;;;;;;8.94;94.05;94726.41;4801010;29;20190;-83
2022/12/22 06:04:58;;;;;;;5.03;0.87;;;;;;;8.94;93.94;94731.56;4807367;29;20198;-82
2022/12/22 06:07:24;;;;;;;2.47;0.83;;;;;;;8.93;93.12;94725.59;4801201;29;20228;-83
2022/12/22 06:09:49;;;;;;;3.70;0.97;;;;;;;8.96;93.43;94719.28;4792250;29;20242;-83
2022/12/22 06:12:14;;;;;;;5.00;1.40;;;;;;;8.96;92.24;94707.13;4796898;29;20198;-83
2022/12/22 06:14:39;;;;;;;2.73;1.00;;;;;;;8.84;92.42;94713.59;4796345;29;20213;-83
2022/12/22 06:17:05;;;;;;;3.27;1.10;;;;;;;8.93;91.87;94725.59;4797348;29;20217;-83
2022/12/22 06:19:30;;;;;;;6.13;1.57;;;;;;;8.92;91.91;94717.94;4807700;29;20798;-85
2022/12/22 07:03:31;;;;;;;6.27;1.67;;;;;;;9.12;91.11;94755.59;5763545;23;20185;-82
2022/12/22 07:05:56;;;;;;;5.60;1.63;;;;;;;9.11;90.84;94751.38;4773483;29;20226;-83
2022/12/22 07:08:21;;;;;;;6.70;1.70;;;;;;;8.90;91.17;94750.97;4778777;29;20248;-85
2022/12/22 07:10:59;;;;;;;3.97;1.20;;;;;;;8.87;91.00;94752.09;4789911;29;20622;-81
2022/12/22 07:13:30;;;;;;;2.57;1.30;;;;;;;8.96;90.67;94758.94;4775094;29;20216;-85
2022/12/22 07:15:56;;;;;;;7.80;1.60;;;;;;;9.00;90.00;94764.59;4789063;29;20214;-86
2022/12/22 07:18:21;;;;;;;5.83;1.83;;;;;;;8.84;90.10;94773.13;4788867;29;20190;-82
2022/12/22 07:20:46;;;;;;;7.27;1.90;;;;;;;8.92;88.92;94751.59;4781245;29;20274;-84
2022/12/22 07:23:11;;;;;;;6.90;2.20;;;;;;;8.83;88.60;94760.31;4778211;29;20189;-85
2022/12/22 07:25:37;;;;;;;5.13;2.50;;;;;;;8.86;88.33;94775.56;4781123;29;20218;-84
2022/12/22 07:28:02;;;;;;;12.80;2.10;;;;;;;8.87;86.40;94769.41;4780541;29;20218;-84
2022/12/22 07:30:28;;;;;;;10.90;2.00;;;;;;;8.98;86.02;94764.75;4773601;29;20582;-85
2022/12/22 07:32:53;;;;;;;11.90;3.23;;;;;;;8.86;85.58;94778.16;4772497;29;20237;-86
2022/12/22 07:35:18;;;;;;;8.50;2.17;;;;;;;9.02;84.40;94773.03;4788585;29;20285;-85
2022/12/22 07:38:00;;;;;;;7.10;2.03;;;;;;;9.01;83.95;94763.63;4788818;29;20195;-88
2022/12/22 07:40:25;;;;;;;9.77;2.20;;;;;;;9.07;83.01;94757.81;4790066;29;20206;-85
2022/12/22 07:42:58;;;;;;;6.53;2.20;;;;;;;9.03;83.11;94757.34;4770360;29;20206;-84
2022/12/22 07:45:23;;;;;;;9.57;3.17;;;;;;;9.00;83.99;94760.22;4772562;29;20240;-84
2022/12/22 07:47:49;;;;;;;9.20;1.97;;;;;;;8.94;83.20;94767.81;4788114;29;20270;-85
2022/12/22 07:50:31;;;;;;;8.57;1.90;;;;;;;9.18;81.92;94767.88;4773969;29;20222;-85
2022/12/22 07:53:01;;;;;;;7.73;2.60;;;;;;;9.12;82.50;94755.59;4776154;29;20195;-85
2022/12/22 07:55:30;;;;;;;5.20;1.60;;;;;;;9.17;81.55;94758.50;4781388;29;20203;-88
2022/12/22 07:57:55;;;;;;;6.73;1.83;;;;;;;9.12;80.94;94750.41;4777350;29;20242;-85
2022/12/22 08:00:22;;;;;;;9.70;1.80;;;;;;;9.10;81.40;94736.81;4783675;29;20215;-86
2022/12/22 08:02:55;;;;;;;7.60;2.23;;;;;;;9.34;80.53;94741.19;4790984;29;20616;-85
2022/12/22 08:05:22;;;;;;;4.10;1.90;;;;;;;9.29;80.74;94754.66;4773335;29;20199;-84
2022/12/22 08:07:49;;;;;;;7.90;2.00;;;;;;;9.47;81.08;94746.75;4774212;29;20203;-85
2022/12/22 08:10:15;;;;;;;8.47;1.70;;;;;;;9.42;81.20;94756.75;4788397;29;20569;-86
2022/12/22 08:12:40;;;;;;;6.40;1.73;;;;;;;9.31;81.75;94762.25;4797639;29;20191;-86
2022/12/22 08:15:06;;;;;;;11.33;2.27;;;;;;;9.22;84.77;94761.44;4774954;29;20191;-86
2022/12/22 08:17:32;;;;;;;7.67;1.87;;;;;;;9.17;85.95;94755.09;4781139;29;20294;-85
2022/12/22 08:19:57;;;;;;;7.87;1.50;;;;;;;8.95;88.57;94764.25;4774249;29;20273;-85
2022/12/22 08:22:23;;;;;;;7.20;2.00;;;;;;;8.98;89.34;94767.34;4773549;29;20202;-85
2022/12/22 08:24:50;;;;;;;7.80;1.57;;;;;;;8.80;87.94;94754.50;4781914;29;20198;-85
2022/12/22 08:27:16;;;;;;;5.93;2.47;;;;;;;8.99;88.24;94755.19;4805299;29;20217;-84
2022/12/22 08:29:45;;;;;;;4.87;1.30;;;;;;;8.92;88.53;94749.03;4773329;29;20215;-84
2022/12/22 08:32:11;;;;;;;9.47;1.83;;;;;;;8.90;89.22;94766.50;4782220;29;20191;-86
2022/12/22 08:34:37;;;;;;;5.23;1.57;;;;;;;8.89;86.96;94760.50;4790412;29;20187;-85
2022/12/22 08:37:04;;;;;;;7.93;1.80;;;;;;;8.93;87.28;94755.84;4774166;29;20229;-86
2022/12/22 08:39:32;;;;;;;7.40;1.60;;;;;;;9.20;86.40;94750.44;4774454;29;20202;-85
2022/12/22 08:41:57;;;;;;;7.80;2.20;;;;;;;9.11;87.07;94753.97;4774457;29;20194;-85
2022/12/22 08:44:25;;;;;;;9.97;2.17;;;;;;;9.11;85.44;94755.75;4776182;29;20223;-86
2022/12/22 08:46:51;;;;;;;9.53;1.83;;;;;;;9.17;84.80;94757.69;4782513;29;20312;-85
2022/12/22 08:49:17;;;;;;;10.13;2.27;;;;;;;9.40;84.26;94766.50;4784484;29;20198;-85
2022/12/22 08:51:42;;;;;;;9.13;2.97;;;;;;;9.46;83.60;94780.59;4780118;29;20205;-86
2022/12/22 08:54:08;;;;;;;9.20;2.40;;;;;;;9.53;83.63;94791.94;4774141;29;20608;-86
2022/12/22 08:56:34;;;;;;;7.47;2.10;;;;;;;9.59;83.98;94789.50;4773466;29;20248;-86
2022/12/22 08:59:03;;;;;;;6.90;1.40;;;;;;;9.26;86.15;94814.53;4775960;29;20277;-86
2022/12/22 09:01:30;;;;;;;4.73;2.27;;;;;;;9.08;88.10;94821.59;4774307;29;20191;-86
2022/12/22 09:04:05;;;;;;;7.23;1.80;;;;;;;8.96;90.51;94812.50;4788852;29;20218;-84
2022/12/22 09:06:31;;;;;;;4.90;1.53;;;;;;;9.00;90.67;94811.19;4773484;29;20217;-84
2022/12/22 09:08:59;;;;;;;5.20;1.50;;;;;;;8.78;93.32;94815.97;4773370;29;20715;-84
2022/12/22 09:11:26;;;;;;;4.37;1.30;;;;;;;8.72;92.35;94805.41;4774009;29;20198;-85
2022/12/22 09:13:53;;;;;;;3.93;1.13;;;;;;;8.89;91.94;94806.31;4774157;29;20254;-84
2022/12/22 09:16:19;;;;;;;6.83;1.97;;;;;;;8.77;93.32;94798.81;4787564;29;20594;-85
2022/12/22 09:18:44;;;;;;;6.83;1.70;;;;;;;8.92;92.80;94799.06;4772763;29;20188;-86
2022/12/22 09:21:10;;;;;;;4.73;1.67;;;;;;;8.75;93.85;94799.94;4791245;29;20198;-84
2022/12/22 09:23:37;;;;;;;7.57;1.97;;;;;;;8.94;93.78;94806.66;4792157;29;20210;-84
2022/12/22 09:26:07;;;;;;;6.23;1.33;;;;;;;9.12;93.56;94801.41;4777292;29;20294;-85
2022/12/22 09:28:33;;;;;;;4.07;1.30;;;;;;;8.70;95.20;94804.75;4776639;29;20213;-85
2022/12/22 09:30:58;;;;;;;2.73;1.33;;;;;;;8.58;97.75;94806.81;4816464;29;20202;-84
2022/12/22 09:33:25;;;;;;;5.83;1.40;;;;;;;8.63;96.72;94796.78;4774250;29;20629;-85
2022/12/22 09:35:51;;;;;;;4.23;1.03;;;;;;;8.89;95.82;94806.31;4774957;29;20229;-82
2022/12/22 09:38:16;;;;;;;3.77;1.10;;;;;;;8.88;97.06;94813.28;4776572;29;20195;-84
2022/12/22 09:40:41;;;;;;;3.93;1.10;;;;;;;8.51;98.28;94809.19;4779207;29;20194;-84
2022/12/22 09:43:11;;;;;;;2.97;1.20;;;;;;;8.83;97.57;94801.75;4808023;29;20217;-83
2022/12/22 09:45:36;;;;;;;3.00;1.00;;;;;;;8.87;96.85;94816.81;4774838;29;20219;-84
2022/12/22 09:48:02;;;;;;;2.60;0.90;;;;;;;8.97;96.25;94817.50;4776198;29;20240;-86
2022/12/22 09:50:27;;;;;;;4.53;1.23;;;;;;;8.86;97.63;94814.41;4791703;29;20222;-84
2022/12/22 09:53:03;;;;;;;4.53;1.10;;;;;;;8.89;97.60;94816.66;4782398;29;20944;-85
2022/12/22 09:55:32;;;;;;;5.20;1.10;;;;;;;8.83;97.68;94823.25;4779293;29;20202;-85
2022/12/22 09:57:57;;;;;;;2.73;1.13;;;;;;;8.90;97.26;94826.06;4781972;29;20202;-84
2022/12/22 10:00:27;;;;;;;4.40;1.07;;;;;;;9.01;96.48;94820.59;4791402;29;20242;-84
2022/12/22 10:03:04;;;;;;;5.23;1.10;;;;;;;8.92;96.52;94830.13;4783075;29;20241;-84
2022/12/22 10:05:37;;;;;;;5.03;0.87;;;;;;;8.98;97.33;94839.03;4776416;29;20285;-85
2022/12/22 10:08:11;;;;;;;4.03;1.00;;;;;;;9.14;96.62;94851.25;4785508;29;20278;-83
2022/12/22 10:10:37;;;;;;;2.00;0.87;;;;;;;9.05;96.77;94840.06;4783428;29;20202;-83
2022/12/22 10:13:03;;;;;;;3.90;1.37;;;;;;;9.12;97.22;94840.25;4786397;29;20191;-82
2022/12/22 10:15:40;;;;;;;1.63;0.93;;;;;;;9.25;95.73;94859.56;4781073;29;20195;-83
2022/12/22 10:18:17;;;;;;;2.90;0.90;;;;;;;9.14;96.02;94854.66;4790062;29;20202;-83
2022/12/22 10:21:06;;;;;;;3.33;0.97;;;;;;;9.24;95.60;94847.56;4775496;29;20197;-85
2022/12/22 10:23:34;;;;;;;4.70;1.37;;;;;;;9.16;97.20;94844.94;4780240;29;20221;-84
2022/12/22 10:26:07;;;;;;;4.20;0.90;;;;;;;9.17;97.83;94841.38;4773940;29;20229;-83
2022/12/22 10:28:45;;;;;;;2.80;0.80;;;;;;;9.27;97.17;94842.06;4787575;29;20199;-83
2022/12/22 10:31:19;;;;;;;3.37;1.20;;;;;;;9.08;96.87;94842.31;4766701;29;20198;-84
2022/12/22 10:33:47;;;;;;;2.77;1.30;;;;;;;8.87;98.25;94860.03;4787544;29;20229;-82
2022/12/22 10:36:19;;;;;;;3.03;1.40;;;;;;;9.15;97.93;94848.50;4790292;29;20218;-84
2022/12/22 10:39:02;;;;;;;4.17;1.23;;;;;;;9.41;95.81;94845.03;4787362;29;20205;-84
2022/12/22 10:41:31;;;;;;;2.73;1.10;;;;;;;9.32;96.38;94850.19;4789973;29;20222;-84
2022/12/22 10:43:58;;;;;;;2.67;0.90;;;;;;;9.39;95.99;94846.97;4775380;29;20197;-84
2022/12/22 10:46:48;;;;;;;2.90;1.10;;;;;;;9.62;94.31;94840.22;4777772;29;20783;-83
2022/12/22 10:49:25;;;;;;;2.10;0.90;;;;;;;9.63;94.29;94831.50;4783524;29;20215;-85
2022/12/22 10:51:53;;;;;;;0.70;0.70;;;;;;;9.67;94.01;94847.53;4782110;29;20191;-85
2022/12/22 10:54:34;;;;;;;3.57;1.40;;;;;;;9.95;92.70;94872.22;4782604;29;20237;-84
2022/12/22 10:57:19;;;;;;;2.70;1.20;;;;;;;9.58;94.33;94865.66;4786869;29;20666;-83
2022/12/22 10:59:51;;;;;;;2.67;1.03;;;;;;;9.74;94.77;94862.31;4784674;29;20714;-84
2022/12/22 11:02:36;;;;;;;2.97;1.13;;;;;;;9.72;94.57;94840.06;4805831;29;20190;-84
2022/12/22 11:05:07;;;;;;;2.70;1.00;;;;;;;9.51;94.78;94843.13;4781179;29;20566;-84
2022/12/22 11:07:38;;;;;;;2.87;1.37;;;;;;;9.82;94.47;94846.75;4771854;29;20222;-84
2022/12/22 11:10:16;;;;;;;2.67;1.00;;;;;;;9.73;93.95;94841.72;4789428;29;20628;-85
2022/12/22 11:12:58;;;;;;;2.93;1.27;;;;;;;9.79;94.60;94841.06;4790824;29;20690;-85
2022/12/22 11:15:32;;;;;;;5.00;2.10;;;;;;;9.82;95.10;94851.94;4783606;29;20556;-85
2022/12/22 11:18:16;;;;;;;2.27;1.07;;;;;;;9.84;94.57;94831.84;4775838;29;20727;-83
2022/12/22 11:20:49;;;;;;;2.50;1.10;;;;;;;9.77;95.17;94836.03;4790459;29;20201;-84
2022/12/22 11:23:32;;;;;;;3.43;1.77;;;;;;;9.65;95.56;94829.56;4803517;29;20225;-84
2022/12/22 11:26:08;;;;;;;3.90;2.03;;;;;;;9.85;95.11;94851.63;4765750;29;20656;-84
2022/12/22 11:29:04;;;;;;;7.50;3.20;;;;;;;9.98;94.63;94848.53;4782618;29;20199;-85
2022/12/22 11:31:48;;;;;;;2.97;1.40;;;;;;;9.79;94.63;94856.63;4791506;29;20204;-84
2022/12/22 11:34:51;;;;;;;2.60;1.03;;;;;;;9.82;94.14;94836.41;4788352;29;20719;-84
2022/12/22 11:37:32;;;;;;;2.17;1.17;;;;;;;10.15;92.26;94839.00;4788545;29;20213;-83
2022/12/22 11:40:03;;;;;;;2.50;1.13;;;;;;;10.03;90.05;94855.84;4774425;29;20222;-85
2022/12/22 11:42:36;;;;;;;2.70;1.00;;;;;;;10.00;92.05;94849.22;4807513;29;20615;-84
2022/12/22 11:45:21;;;;;;;5.63;1.10;;;;;;;10.20;91.23;94866.09;4791326;29;20229;-84
2022/12/22 11:48:36;;;;;;;3.40;1.20;;;;;;;10.00;92.36;94848.41;4785697;29;20344;-82
2022/12/22 11:51:30;;;;;;;3.93;0.87;;;;;;;10.06;93.06;94860.72;4756438;29;20673;-85
2022/12/22 11:54:15;;;;;;;3.23;1.10;;;;;;;9.85;93.22;94872.38;4804141;29;20213;-84
2022/12/22 11:56:44;;;;;;;1.60;0.87;;;;;;;9.94;93.22;94861.03;4781479;29;20695;-85
2022/12/22 11:59:23;;;;;;;4.83;1.00;;;;;;;9.70;92.96;94850.63;4790778;29;20198;-85
2022/12/22 12:01:57;;;;;;;3.70;1.03;;;;;;;10.04;92.90;94860.06;4788014;29;20221;-84
2022/12/22 12:04:35;;;;;;;3.13;1.20;;;;;;;10.00;93.25;94864.78;4803751;29;20202;-85
2022/12/22 12:07:23;;;;;;;4.60;1.37;;;;;;;10.25;91.03;94864.81;4775639;29;20370;-85
2022/12/22 12:10:12;;;;;;;4.20;1.10;;;;;;;10.05;91.31;94861.69;4784115;29;20596;-84
2022/12/22 12:12:56;;;;;;;3.57;1.07;;;;;;;9.94;90.37;94860.22;4801751;29;20186;-84
2022/12/22 12:15:36;;;;;;;2.93;1.40;;;;;;;10.07;90.26;94865.75;4789437;29;20675;-85
2022/12/22 12:18:21;;;;;;;4.73;0.90;;;;;;;10.16;90.07;94879.56;4792052;29;20189;-82
2022/12/22 12:20:57;;;;;;;2.37;1.10;;;;;;;9.70;91.91;94892.09;4805638;29;20186;-84
2022/12/22 12:23:29;;;;;;;4.07;1.13;;;;;;;9.70;92.02;94868.75;4771357;30;20226;-86
2022/12/22 12:26:04;;;;;;;4.27;1.00;;;;;;;9.57;92.28;94881.38;4797365;29;20214;-84
2022/12/22 12:32:05;;;;;;;3.93;1.20;;;;;;;9.44;94.49;94884.41;4807609;29;20561;-83
2022/12/22 12:34:38;;;;;;;3.13;1.00;;;;;;;9.57;94.30;94889.16;4807870;29;20229;-84
2022/12/22 12:37:21;;;;;;;3.80;1.20;;;;;;;9.50;94.00;94894.16;4789982;29;20207;-84
2022/12/22 12:40:17;;;;;;;2.70;1.10;;;;;;;9.73;93.93;94915.13;4773843;29;20718;-84
2022/12/22 12:42:44;;;;;;;4.17;1.20;;;;;;;9.81;93.01;94906.56;4796139;29;20194;-84
2022/12/22 12:45:32;;;;;;;6.37;1.23;;;;;;;9.98;92.68;94897.00;4793867;29;20202;-80
2022/12/22 12:48:19;;;;;;;3.47;1.00;;;;;;;9.57;94.54;94897.75;4773809;29;20245;-87
2022/12/22 12:50:55;;;;;;;3.17;1.20;;;;;;;9.43;94.61;94910.47;4790770;29;20198;-85
2022/12/22 12:53:24;;;;;;;2.40;0.93;;;;;;;9.48;95.60;94921.19;4787230;29;20293;-86
2022/12/22 12:55:50;;;;;;;3.70;1.20;;;;;;;9.47;95.63;94914.41;4793390;29;20236;-86
2022/12/22 12:58:36;;;;;;;3.97;1.17;;;;;;;9.53;95.87;94921.53;4795719;29;20590;-85
2022/12/22 13:01:03;;;;;;;4.10;0.90;;;;;;;9.59;95.68;94929.50;4793363;29;20199;-86
2022/12/22 13:03:28;;;;;;;3.70;1.17;;;;;;;9.66;96.21;94942.66;4810328;29;20195;-85
2022/12/22 13:05:58;;;;;;;5.83;1.23;;;;;;;9.55;97.35;94953.31;4809737;29;20237;-86
2022/12/22 13:08:24;;;;;;;5.17;1.30;;;;;;;9.54;96.62;94954.25;4777333;29;20222;-85
2022/12/22 13:10:52;;;;;;;3.70;1.17;;;;;;;9.44;97.15;94950.97;4809263;29;20206;-85
2022/12/22 13:13:24;;;;;;;3.13;1.30;;;;;;;9.54;97.77;94946.47;4804309;29;20275;-83
2022/12/22 13:15:58;;;;;;;4.33;1.20;;;;;;;9.76;96.64;94945.13;4804506;29;20664;-82
2022/12/22 13:18:23;;;;;;;7.23;2.20;;;;;;;9.54;97.64;94938.69;4807596;29;20193;-84
2022/12/22 13:21:04;;;;;;;8.33;3.27;;;;;;;9.49;98.39;94934.00;4806987;29;20714;-86
2022/12/22 13:23:36;;;;;;;7.93;2.20;;;;;;;9.56;98.01;94935.00;4808371;29;20209;-86
2022/12/22 13:26:20;;;;;;;4.77;1.83;;;;;;;9.54;96.43;94926.56;4774597;29;20266;-84
2022/12/22 13:28:51;;;;;;;6.17;1.90;;;;;;;9.65;96.76;94928.06;4789171;29;20198;-82
2022/12/22 13:31:37;;;;;;;6.23;2.30;;;;;;;9.52;96.98;94938.03;4789959;29;20191;-86
2022/12/22 13:34:29;;;;;;;3.47;1.57;;;;;;;9.51;95.40;94918.28;4772826;29;20261;-84
2022/12/22 13:36:57;;;;;;;4.37;1.90;;;;;;;9.32;97.83;94933.09;4803228;29;20257;-84
2022/12/22 13:39:22;;;;;;;7.70;1.90;;;;;;;9.17;98.42;94920.88;4785019;29;20199;-85
2022/12/22 13:41:49;;;;;;;6.20;1.63;;;;;;;9.25;97.96;94934.69;4787257;29;20259;-83
2022/12/22 13:44:18;;;;;;;6.33;1.57;;;;;;;9.34;97.85;94940.72;4776509;29;20188;-84
2022/12/22 13:46:44;;;;;;;7.07;1.30;;;;;;;9.20;98.19;94944.72;4791607;29;20215;-83
2022/12/22 13:49:15;;;;;;;8.67;1.97;;;;;;;9.09;97.78;94942.38;4782914;29;20241;-81
2022/12/22 13:51:40;;;;;;;6.50;1.83;;;;;;;9.30;97.20;94953.19;4771712;29;20202;-84
2022/12/22 13:54:35;;;;;;;8.40;1.90;;;;;;;9.33;96.49;94960.63;4790285;29;20277;-83
2022/12/22 13:57:02;;;;;;;6.63;2.03;;;;;;;9.20;97.26;94964.63;4789621;29;20245;-84
2022/12/22 13:59:48;;;;;;;10.17;1.93;;;;;;;9.20;97.46;94955.06;4789884;29;20298;-83
2022/12/22 14:02:18;;;;;;;5.83;1.80;;;;;;;9.05;98.99;94956.59;4787274;30;20211;-83
2022/12/22 14:05:10;;;;;;;7.10;2.13;;;;;;;8.99;98.63;94947.66;4800487;29;20225;-84
2022/12/22 14:07:36;;;;;;;11.47;2.40;;;;;;;8.98;98.05;94953.78;4767316;29;20215;-84
2022/12/22 14:10:05;;;;;;;10.77;2.53;;;;;;;8.93;98.88;94958.63;4789027;29;20195;-81
2022/12/22 14:12:35;;;;;;;12.10;2.60;;;;;;;9.06;98.22;94966.00;4774382;29;20688;-83
2022/12/22 14:15:02;;;;;;;12.63;2.80;;;;;;;9.01;98.21;94978.56;4775409;29;20202;-84
2022/12/22 14:17:31;;;;;;;11.03;2.13;;;;;;;8.93;98.85;94981.13;4776925;29;20263;-82
2022/12/22 14:19:58;;;;;;;9.97;2.30;;;;;;;9.01;97.78;94975.97;4765811;29;20203;-84
2022/12/22 14:22:31;;;;;;;13.63;2.93;;;;;;;8.85;98.96;94976.69;4788629;29;20610;-84
2022/12/22 14:25:27;;;;;;;11.37;2.50;;;;;;;8.84;97.36;94976.84;4774755;29;20308;-85
2022/12/22 14:27:54;;;;;;;8.40;2.40;;;;;;;8.91;97.41;94980.44;4781432;29;20604;-84
2022/12/22 14:30:37;;;;;;;13.47;2.93;;;;;;;8.87;96.89;94984.31;4784727;29;20621;-83
2022/12/22 14:33:28;;;;;;;17.53;3.50;;;;;;;8.99;95.99;94998.63;4775144;29;20675;-84
2022/12/22 14:36:14;;;;;;;12.70;2.70;;;;;;;8.94;95.77;95006.06;4796252;29;20211;-84
2022/12/22 14:38:42;;;;;;;13.13;2.77;;;;;;;8.86;96.21;94995.63;4790458;29;20269;-84
2022/12/22 14:41:40;;;;;;;9.53;2.67;;;;;;;8.81;96.14;95011.59;4775048;29;20195;-84
2022/12/22 14:44:15;;;;;;;14.43;3.63;;;;;;;8.84;95.35;95013.91;4785254;29;20247;-83
2022/12/22 14:46:42;;;;;;;11.10;3.57;;;;;;;8.89;95.26;95021.22;4773362;29;20294;-81
2022/12/22 14:49:12;;;;;;;13.23;3.83;;;;;;;8.89;95.18;95032.38;4779186;29;20187;-86
2022/12/22 14:51:38;;;;;;;13.57;3.20;;;;;;;8.90;94.98;95028.84;4771811;29;20247;-84
2022/12/22 14:54:03;;;;;;;16.90;3.20;;;;;;;9.00;94.26;95024.38;4775439;29;20191;-84
2022/12/22 14:56:28;;;;;;;9.80;2.70;;;;;;;8.87;94.40;95018.78;4774620;29;20630;-85
2022/12/22 14:59:22;;;;;;;14.80;3.30;;;;;;;8.82;93.59;95020.19;4780071;29;20270;-85
2022/12/22 15:02:01;;;;;;;14.47;3.53;;;;;;;8.84;93.00;95013.09;4777164;29;20243;-84
2022/12/22 15:04:28;;;;;;;12.47;3.37;;;;;;;8.74;93.48;95005.41;4790029;29;20255;-84
2022/12/22 15:07:05;;;;;;;16.97;4.00;;;;;;;8.75;93.64;95017.41;4773890;29;20336;-85
2022/12/22 15:09:30;;;;;;;12.33;4.97;;;;;;;8.83;92.91;95019.22;4775613;29;20201;-84
2022/12/22 15:12:05;;;;;;;11.00;3.30;;;;;;;8.67;93.52;95036.25;4789488;29;20198;-85
2022/12/22 15:14:33;;;;;;;15.23;3.53;;;;;;;8.73;93.07;95029.66;4772732;29;20194;-83
2022/12/22 15:17:00;;;;;;;18.83;3.27;;;;;;;8.72;92.85;95025.44;4780674;29;20260;-84
2022/12/22 15:19:28;;;;;;;15.13;3.57;;;;;;;8.89;92.07;95031.56;4777116;29;20191;-81
2022/12/22 15:21:53;;;;;;;12.73;3.50;;;;;;;8.78;92.59;95028.25;4788906;29;20648;-81
2022/12/22 15:24:19;;;;;;;10.87;3.97;;;;;;;8.59;93.04;95037.97;4782627;29;20194;-82
2022/12/22 15:26:44;;;;;;;18.13;3.10;;;;;;;8.74;92.71;95041.63;4782063;29;20221;-83
2022/12/22 15:29:10;;;;;;;9.40;3.13;;;;;;;8.71;92.42;95042.75;4771249;29;20210;-83
2022/12/22 15:31:36;;;;;;;13.00;3.67;;;;;;;8.78;92.44;95032.63;4784870;29;20275;-82
2022/12/22 15:34:06;;;;;;;16.60;6.93;;;;;;;8.78;91.65;95038.63;4773056;29;20199;-82
2022/12/22 15:36:52;;;;;;;18.47;5.53;;;;;;;8.75;90.97;95048.47;4773151;29;20321;-87
2022/12/22 15:39:19;;;;;;;9.43;3.37;;;;;;;8.79;91.22;95049.78;4779037;29;20194;-84
2022/12/22 15:41:44;;;;;;;14.40;4.17;;;;;;;8.78;91.03;95054.16;4789280;29;20186;-85
2022/12/22 15:44:10;;;;;;;15.90;3.20;;;;;;;8.67;90.87;95062.16;4771903;29;20248;-86
2022/12/22 15:46:37;;;;;;;15.47;3.63;;;;;;;8.52;91.99;95055.84;4771277;29;20221;-83
2022/12/22 15:49:02;;;;;;;17.23;3.70;;;;;;;8.49;92.37;95066.50;4773469;29;20255;-84
2022/12/22 15:51:29;;;;;;;18.47;3.30;;;;;;;8.48;91.82;95057.09;4779538;29;20191;-81
2022/12/22 15:53:56;;;;;;;15.57;3.33;;;;;;;8.73;89.74;95050.38;4774058;29;20255;-83
2022/12/22 15:56:26;;;;;;;12.43;2.80;;;;;;;8.67;89.58;95049.19;4781859;29;20217;-84
2022/12/22 15:58:51;;;;;;;15.33;3.33;;;;;;;8.60;89.84;95050.75;4780561;29;20225;-86
2022/12/22 16:01:16;;;;;;;14.93;3.70;;;;;;;8.63;89.87;95050.44;4770884;29;20292;-85
2022/12/22 16:03:42;;;;;;;15.93;4.47;;;;;;;8.62;89.70;95048.00;4770811;29;20238;-84
2022/12/22 16:06:15;;;;;;;17.73;4.10;;;;;;;8.66;89.53;95054.53;4780570;29;20230;-86
2022/12/22 16:08:42;;;;;;;17.57;4.13;;;;;;;8.60;88.93;95057.69;4783751;29;20234;-85
2022/12/22 16:11:08;;;;;;;20.87;4.80;;;;;;;8.68;88.50;95057.78;4788397;29;20607;-85
2022/12/22 16:13:35;;;;;;;19.03;6.50;;;;;;;8.54;89.19;95059.09;4788013;29;20250;-85
2022/12/22 16:16:00;;;;;;;16.60;4.50;;;;;;;8.70;89.35;95056.66;4772400;29;20591;-84
2022/12/22 16:18:26;;;;;;;18.90;4.27;;;;;;;8.68;89.03;95058.59;4772649;29;20206;-86